AYNZ/LAE METAR and TAF weather

Enter ICAO airport designator
Station Type Date Time Source
AYNZ METAR 2019/08/19 22:00 UTC NOAA

AYNZ 192200Z 11002KT 9999 SCT035 BKN050 24/19 Q1012=


Station Type Date Time Source
AYNZ Decoded METAR 2019/08/19 22:00 UTC NOAA

Station name not available
Aug 19, 2019 - 06:00 PM EDT / 2019.08.19 2200 UTC
Wind: from the ESE (110 degrees) at 2 MPH (2 KT):0
Visibility: greater than 7 mile(s):0
Sky conditions: mostly cloudy
Temperature: 75 F (24 C)
Dew Point: 66 F (19 C)
Relative Humidity: 73%
Pressure (altimeter): 29.88 in. Hg (1012 hPa)
ob: AYNZ 192200Z 11002KT 9999 SCT035 BKN050 24/19 Q1012=
cycle: 22

Station Type Date Time Source
AYNZ TAF 2015/08/19 08:15 UTC NOAA

TAF AYNZ 190550Z 1908/1920 09015KT 9999 SCT020 SCT120
FM191400 VRB03KT 9999 BKN040 Q 1011 1014 1013 1010

Example: see airport list